createdAt,value
2023-07-26T00:00:42.157Z,15.60
2023-07-26T00:03:10.171Z,15.70
2023-07-26T00:05:38.138Z,15.60
2023-07-26T00:08:06.488Z,15.60
2023-07-26T00:10:34.394Z,15.60
2023-07-26T00:13:04.506Z,15.60
2023-07-26T00:15:32.507Z,15.60
2023-07-26T00:18:00.459Z,15.60
2023-07-26T00:20:28.438Z,15.60
2023-07-26T00:22:56.347Z,15.60
2023-07-26T00:25:24.221Z,15.60
2023-07-26T00:27:52.109Z,15.60
2023-07-26T00:30:21.447Z,15.60
2023-07-26T00:32:49.491Z,15.60
2023-07-26T00:35:21.575Z,15.60
2023-07-26T00:37:49.627Z,15.60
2023-07-26T00:40:18.113Z,15.60
2023-07-26T00:42:46.026Z,15.60
2023-07-26T00:45:14.067Z,15.60
2023-07-26T00:47:44.048Z,15.60
2023-07-26T00:50:12.213Z,15.60
2023-07-26T00:52:41.049Z,15.60
2023-07-26T00:55:10.185Z,15.60
2023-07-26T00:57:38.849Z,15.60
2023-07-26T01:00:08.299Z,15.50
2023-07-26T01:02:36.364Z,15.60
2023-07-26T01:05:06.485Z,15.60
2023-07-26T01:07:44.663Z,15.60
2023-07-26T01:10:18.443Z,15.50
2023-07-26T01:12:53.360Z,15.50
2023-07-26T01:15:25.486Z,15.50
2023-07-26T01:18:08.950Z,15.50
2023-07-26T01:20:38.292Z,15.50
2023-07-26T01:23:07.639Z,15.50
2023-07-26T01:25:35.714Z,15.50
2023-07-26T01:28:03.725Z,15.50
2023-07-26T01:30:34.274Z,15.50
2023-07-26T01:33:05.358Z,15.60
2023-07-26T01:35:33.475Z,15.60
2023-07-26T01:38:02.169Z,15.60
2023-07-26T01:40:31.595Z,15.60
2023-07-26T01:42:59.779Z,15.60
2023-07-26T01:45:27.737Z,15.50
2023-07-26T01:47:55.998Z,15.50
2023-07-26T01:50:24.243Z,15.50
2023-07-26T01:52:52.144Z,15.50
2023-07-26T01:55:20.073Z,15.40
2023-07-26T01:57:49.341Z,15.40
2023-07-26T02:00:17.891Z,15.30
2023-07-26T02:02:45.884Z,15.30
2023-07-26T02:05:13.908Z,15.30
2023-07-26T02:07:41.829Z,15.20
2023-07-26T02:10:10.349Z,15.20
2023-07-26T02:12:38.223Z,15.20
2023-07-26T02:15:08.658Z,15.10
2023-07-26T02:17:36.817Z,15.10
2023-07-26T02:20:06.002Z,15.00
2023-07-26T02:22:34.215Z,14.90
2023-07-26T02:25:02.225Z,14.90
2023-07-26T02:27:30.261Z,14.80
2023-07-26T02:29:58.418Z,14.80
2023-07-26T02:32:28.725Z,14.70
2023-07-26T02:34:56.686Z,14.70
2023-07-26T02:37:24.670Z,14.60
2023-07-26T02:39:53.005Z,14.60
2023-07-26T02:42:20.952Z,14.50
2023-07-26T02:44:51.247Z,14.50
2023-07-26T02:47:19.190Z,14.50
2023-07-26T02:49:48.834Z,14.50
2023-07-26T02:52:16.795Z,14.50
2023-07-26T02:54:44.823Z,14.50
2023-07-26T02:57:12.865Z,14.50
2023-07-26T02:59:40.820Z,14.50
2023-07-26T03:02:08.797Z,14.50
2023-07-26T03:04:37.245Z,14.50
2023-07-26T03:07:07.007Z,14.50
2023-07-26T03:09:35.026Z,14.50
2023-07-26T03:12:03.019Z,14.40
2023-07-26T03:14:30.951Z,14.40
2023-07-26T03:17:05.419Z,14.30
2023-07-26T03:19:44.216Z,14.30
2023-07-26T03:22:13.475Z,14.20
2023-07-26T03:24:41.477Z,14.20
2023-07-26T03:27:09.637Z,14.20
2023-07-26T03:29:37.620Z,14.10
2023-07-26T03:32:06.166Z,14.10
2023-07-26T03:34:34.251Z,14.10
2023-07-26T03:37:02.841Z,14.10
2023-07-26T03:39:32.197Z,14.00
2023-07-26T03:42:00.085Z,14.00
2023-07-26T03:44:28.060Z,14.00
2023-07-26T03:46:56.047Z,14.00
2023-07-26T03:49:24.011Z,14.00
2023-07-26T03:51:51.953Z,14.00
2023-07-26T03:54:19.907Z,14.00
2023-07-26T03:56:49.335Z,14.00
2023-07-26T03:59:17.301Z,13.90
2023-07-26T04:01:45.241Z,14.00
2023-07-26T04:04:13.352Z,13.90
2023-07-26T04:06:41.467Z,13.90
2023-07-26T04:09:09.381Z,13.90
2023-07-26T04:11:37.351Z,14.00
2023-07-26T04:14:06.772Z,14.00
2023-07-26T04:16:34.994Z,14.00
2023-07-26T04:19:03.208Z,14.10
2023-07-26T04:21:31.086Z,14.10
2023-07-26T04:23:59.056Z,14.10
2023-07-26T04:26:27.007Z,14.20
2023-07-26T04:28:55.060Z,14.20
2023-07-26T04:31:27.094Z,14.20
2023-07-26T04:33:55.074Z,14.20
2023-07-26T04:36:23.015Z,14.20
2023-07-26T04:38:50.959Z,14.30
2023-07-26T04:41:18.878Z,14.30
2023-07-26T04:43:46.747Z,14.30
2023-07-26T04:46:14.631Z,14.40
2023-07-26T04:48:43.908Z,14.40
2023-07-26T04:51:13.324Z,14.40
2023-07-26T04:53:41.270Z,14.50
2023-07-26T04:56:09.432Z,14.50
2023-07-26T04:58:37.360Z,14.50
2023-07-26T05:01:05.302Z,14.50
2023-07-26T05:03:33.231Z,14.60
2023-07-26T05:06:02.510Z,14.60
2023-07-26T05:08:30.654Z,14.60
2023-07-26T05:10:58.642Z,14.60
2023-07-26T05:13:26.911Z,14.60
2023-07-26T05:15:54.883Z,14.70
2023-07-26T05:18:22.932Z,14.70
2023-07-26T05:20:52.058Z,14.80
2023-07-26T05:23:21.540Z,14.80
2023-07-26T05:25:49.971Z,14.80
2023-07-26T05:28:17.919Z,14.80
2023-07-26T05:30:45.881Z,14.80
2023-07-26T05:33:13.880Z,14.80
2023-07-26T05:35:41.876Z,14.90
2023-07-26T05:38:09.849Z,14.90
2023-07-26T05:40:39.452Z,14.90
2023-07-26T05:43:07.440Z,14.90
2023-07-26T05:45:35.387Z,14.90
2023-07-26T05:48:03.348Z,14.80
2023-07-26T05:50:31.341Z,14.80
2023-07-26T05:52:59.214Z,14.80
2023-07-26T05:55:27.302Z,14.80
2023-07-26T05:57:56.595Z,14.80
2023-07-26T06:00:24.541Z,14.70
2023-07-26T06:02:52.538Z,14.70
2023-07-26T06:05:20.528Z,14.60
2023-07-26T06:07:49.272Z,14.60
2023-07-26T06:10:17.130Z,14.50
2023-07-26T06:12:45.057Z,14.60
2023-07-26T06:15:14.424Z,14.50
2023-07-26T06:17:42.491Z,14.50
2023-07-26T06:20:11.872Z,14.50
2023-07-26T06:22:39.801Z,14.40
2023-07-26T06:25:08.239Z,14.40
2023-07-26T06:27:36.307Z,14.40
2023-07-26T06:30:04.982Z,14.30
2023-07-26T06:32:35.203Z,14.30
2023-07-26T06:35:03.178Z,14.30
2023-07-26T06:37:31.076Z,14.20
2023-07-26T06:39:59.013Z,14.10
2023-07-26T06:42:26.886Z,14.10
2023-07-26T06:44:54.846Z,14.00
2023-07-26T06:47:22.862Z,13.90
2023-07-26T06:49:52.346Z,13.90
2023-07-26T06:52:20.380Z,13.90
2023-07-26T06:54:48.258Z,13.80
2023-07-26T06:57:16.148Z,13.80
2023-07-26T06:59:44.067Z,13.80
2023-07-26T07:02:12.537Z,13.70
2023-07-26T07:04:40.447Z,13.80
2023-07-26T07:07:09.751Z,13.80
2023-07-26T07:09:37.725Z,13.90
2023-07-26T07:12:08.385Z,13.90
2023-07-26T07:14:36.515Z,13.90
2023-07-26T07:17:04.930Z,14.00
2023-07-26T07:19:32.870Z,14.10
2023-07-26T07:22:00.915Z,14.20
2023-07-26T07:24:30.352Z,14.30
2023-07-26T07:26:58.383Z,14.30
2023-07-26T07:29:26.306Z,14.40
2023-07-26T07:31:56.380Z,14.60
2023-07-26T07:34:31.043Z,14.70
2023-07-26T07:36:58.978Z,14.80
2023-07-26T07:39:27.151Z,15.00
2023-07-26T07:41:56.455Z,15.10
2023-07-26T07:44:24.402Z,15.30
2023-07-26T07:47:02.730Z,15.40
2023-07-26T07:49:32.490Z,15.60
2023-07-26T07:52:00.393Z,15.70
2023-07-26T07:54:28.365Z,15.80
2023-07-26T07:56:57.626Z,16.00
2023-07-26T07:59:25.501Z,16.30
2023-07-26T08:01:53.459Z,16.50
2023-07-26T08:04:22.141Z,16.70
2023-07-26T08:06:50.121Z,16.80
2023-07-26T08:09:17.988Z,16.90
2023-07-26T08:11:45.833Z,17.00
2023-07-26T08:14:15.192Z,17.00
2023-07-26T08:16:43.242Z,17.20
2023-07-26T08:19:11.213Z,17.30
2023-07-26T08:21:39.125Z,17.50
2023-07-26T08:24:07.740Z,17.60
2023-07-26T08:26:36.015Z,17.70
2023-07-26T08:29:03.893Z,17.90
2023-07-26T08:31:33.688Z,18.20
2023-07-26T08:34:01.866Z,18.50
2023-07-26T08:36:29.852Z,18.80
2023-07-26T08:38:57.750Z,19.10
2023-07-26T08:41:26.637Z,19.50
2023-07-26T08:43:56.823Z,20.10
2023-07-26T08:46:26.430Z,20.60
2023-07-26T08:48:56.459Z,21.10
2023-07-26T08:51:24.783Z,21.40
2023-07-26T08:53:53.534Z,21.70
2023-07-26T08:56:21.877Z,21.70
2023-07-26T08:58:49.789Z,21.60
2023-07-26T09:01:17.951Z,21.20
2023-07-26T09:03:46.368Z,20.90
2023-07-26T09:06:15.647Z,20.70
2023-07-26T09:08:44.734Z,20.60
2023-07-26T09:11:24.504Z,20.90
2023-07-26T09:13:56.374Z,21.40
2023-07-26T09:16:28.509Z,21.80
2023-07-26T09:19:01.326Z,22.10
2023-07-26T09:21:33.975Z,22.20
2023-07-26T09:24:04.837Z,22.30
2023-07-26T09:26:34.517Z,22.20
2023-07-26T09:29:02.586Z,22.50
2023-07-26T09:31:34.398Z,22.80
2023-07-26T09:34:05.115Z,22.70
2023-07-26T09:36:45.102Z,22.40
2023-07-26T09:39:14.247Z,22.10
2023-07-26T09:41:42.497Z,21.90
2023-07-26T09:44:16.778Z,21.70
2023-07-26T09:46:49.573Z,21.50
2023-07-26T09:54:32.885Z,21.60
2023-07-26T09:57:02.660Z,21.40
2023-07-26T09:59:31.143Z,21.40
2023-07-26T10:02:04.678Z,21.40
2023-07-26T10:04:41.456Z,21.50
2023-07-26T10:07:13.598Z,21.30
2023-07-26T10:09:44.710Z,21.40
2023-07-26T10:12:13.622Z,21.30
2023-07-26T10:14:42.076Z,21.30
2023-07-26T10:17:12.688Z,21.30
2023-07-26T10:19:42.631Z,21.50
2023-07-26T10:22:14.020Z,21.60
2023-07-26T10:24:43.943Z,21.70
2023-07-26T10:27:12.824Z,21.80
2023-07-26T10:29:41.291Z,21.80
2023-07-26T10:32:10.949Z,21.80
2023-07-26T10:34:41.456Z,21.80
2023-07-26T10:37:19.354Z,21.80
2023-07-26T10:39:47.716Z,21.70
2023-07-26T10:42:26.636Z,21.90
2023-07-26T10:44:55.596Z,22.20
2023-07-26T10:47:24.130Z,22.50
2023-07-26T10:49:55.107Z,22.60
2023-07-26T10:52:35.300Z,22.40
2023-07-26T10:55:20.403Z,22.20
2023-07-26T10:57:50.804Z,22.10
2023-07-26T11:00:23.932Z,22.00
2023-07-26T11:02:53.319Z,21.50
2023-07-26T11:05:22.935Z,20.80
2023-07-26T11:07:53.490Z,20.00
2023-07-26T11:10:23.414Z,19.50
2023-07-26T11:12:52.728Z,19.30
2023-07-26T11:16:13.238Z,19.40
2023-07-26T11:18:20.554Z,19.70
2023-07-26T11:20:49.993Z,20.00
2023-07-26T11:23:23.000Z,20.30
2023-07-26T11:25:54.844Z,20.60
2023-07-26T11:28:23.662Z,20.90
2023-07-26T11:30:54.231Z,21.10
2023-07-26T11:33:32.575Z,21.10
2023-07-26T11:36:02.196Z,21.10
2023-07-26T11:38:31.624Z,21.30
2023-07-26T11:40:59.808Z,21.70
2023-07-26T11:43:29.878Z,22.20
2023-07-26T11:46:01.412Z,22.40
2023-07-26T11:48:31.673Z,22.20
2023-07-26T11:51:05.166Z,21.80
2023-07-26T11:56:07.836Z,20.60
2023-07-26T11:58:36.593Z,20.40
2023-07-26T12:01:05.637Z,20.20
2023-07-26T12:03:34.186Z,20.20
2023-07-26T12:06:08.300Z,20.20
2023-07-26T12:08:40.382Z,20.20
2023-07-26T12:11:11.402Z,20.40
2023-07-26T12:13:39.350Z,20.60
2023-07-26T12:16:10.249Z,20.90
2023-07-26T12:18:49.887Z,21.30
2023-07-26T12:21:18.188Z,21.80
2023-07-26T12:24:00.116Z,22.10
2023-07-26T12:26:32.166Z,21.80
2023-07-26T12:29:01.787Z,21.50
2023-07-26T12:31:32.174Z,21.00
2023-07-26T12:34:02.428Z,20.50
2023-07-26T12:36:32.322Z,20.10
2023-07-26T12:39:01.962Z,19.70
2023-07-26T12:41:29.984Z,19.50
2023-07-26T12:43:58.789Z,19.40
2023-07-26T12:46:26.971Z,19.20
2023-07-26T12:48:57.376Z,19.00
2023-07-26T12:51:25.684Z,18.70
2023-07-26T12:53:53.834Z,18.40
2023-07-26T12:56:23.334Z,18.10
2023-07-26T12:59:06.120Z,18.00
2023-07-26T13:01:38.149Z,17.90
2023-07-26T13:04:07.105Z,17.90
2023-07-26T13:06:36.477Z,17.80
2023-07-26T13:09:05.591Z,17.80
2023-07-26T13:11:35.270Z,17.90
2023-07-26T13:14:03.383Z,18.00
2023-07-26T13:16:33.308Z,18.10
2023-07-26T13:19:02.492Z,18.10
2023-07-26T13:21:30.744Z,18.20
2023-07-26T13:23:58.743Z,18.50
2023-07-26T13:26:27.206Z,18.80
2023-07-26T13:28:56.602Z,19.00
2023-07-26T13:31:24.893Z,19.20
2023-07-26T13:33:53.019Z,19.40
2023-07-26T13:36:22.814Z,19.50
2023-07-26T13:38:50.997Z,19.60
2023-07-26T13:41:19.723Z,19.80
2023-07-26T13:43:48.203Z,20.00
2023-07-26T13:48:49.902Z,21.20
2023-07-26T13:51:18.000Z,22.00
2023-07-26T13:53:45.884Z,22.60
2023-07-26T13:56:13.762Z,23.30
2023-07-26T13:58:43.181Z,24.10
2023-07-26T14:01:12.100Z,24.70
2023-07-26T14:03:41.437Z,25.30
2023-07-26T14:06:09.428Z,25.70
2023-07-26T14:08:37.342Z,26.20
2023-07-26T14:11:05.280Z,26.50
2023-07-26T14:13:33.643Z,26.90
2023-07-26T14:18:32.877Z,26.40
2023-07-26T14:21:02.377Z,25.80
2023-07-26T14:23:33.786Z,25.10
2023-07-26T14:26:02.741Z,24.80
2023-07-26T14:28:31.137Z,25.40
2023-07-26T14:31:01.194Z,25.40
2023-07-26T14:33:29.222Z,24.90
2023-07-26T14:35:57.243Z,24.30
2023-07-26T14:38:26.584Z,23.80
2023-07-26T14:40:54.579Z,23.60
2023-07-26T14:43:22.618Z,23.20
2023-07-26T14:45:50.658Z,22.90
2023-07-26T14:48:19.663Z,22.50
2023-07-26T14:50:47.716Z,22.30
2023-07-26T14:53:15.632Z,22.10
2023-07-26T14:55:44.918Z,22.20
2023-07-26T14:58:12.764Z,22.00
2023-07-26T15:00:41.086Z,21.90
2023-07-26T15:03:09.061Z,21.70
2023-07-26T15:05:38.389Z,21.50
2023-07-26T15:08:06.966Z,21.30
2023-07-26T15:10:35.168Z,21.10
2023-07-26T15:13:04.914Z,21.00
2023-07-26T15:15:32.986Z,20.90
2023-07-26T15:18:00.898Z,20.90
2023-07-26T15:20:31.024Z,20.80
2023-07-26T15:22:59.367Z,20.80
2023-07-26T15:25:27.319Z,20.80
2023-07-26T15:27:55.249Z,20.80
2023-07-26T15:30:24.508Z,20.90
2023-07-26T15:32:52.692Z,21.10
2023-07-26T15:35:23.271Z,21.50
2023-07-26T15:37:51.319Z,21.80
2023-07-26T15:43:00.471Z,22.00
2023-07-26T15:45:54.713Z,22.00
2023-07-26T15:48:20.210Z,21.90
2023-07-26T15:53:18.969Z,21.60
2023-07-26T15:55:49.518Z,21.50
2023-07-26T15:58:17.800Z,21.40
2023-07-26T16:00:47.243Z,21.30
2023-07-26T16:11:03.452Z,20.60
2023-07-26T16:13:31.501Z,20.50
2023-07-26T16:18:33.081Z,20.30
2023-07-26T16:23:32.526Z,20.10
2023-07-26T16:26:00.584Z,20.10
2023-07-26T16:28:28.579Z,20.30
2023-07-26T16:30:56.564Z,20.30
2023-07-26T16:33:25.848Z,20.30
2023-07-26T16:35:55.768Z,20.30
2023-07-26T16:38:23.908Z,20.20
2023-07-26T16:40:52.297Z,20.10
2023-07-26T16:43:20.300Z,20.10
2023-07-26T16:45:48.373Z,20.10
2023-07-26T16:48:16.419Z,20.10
2023-07-26T16:50:45.731Z,20.00
2023-07-26T16:53:13.677Z,20.00
2023-07-26T16:55:41.654Z,20.00
2023-07-26T16:58:09.624Z,20.10
2023-07-26T17:00:37.748Z,20.20
2023-07-26T17:03:06.714Z,20.40
2023-07-26T17:05:35.736Z,20.70
2023-07-26T17:08:05.487Z,21.10
2023-07-26T17:10:33.616Z,21.40
2023-07-26T17:13:01.625Z,21.60
2023-07-26T17:15:29.576Z,21.70
2023-07-26T17:17:57.887Z,21.70
2023-07-26T17:20:25.906Z,21.60
2023-07-26T17:22:53.960Z,21.40
2023-07-26T17:25:23.288Z,21.20
2023-07-26T17:27:51.223Z,21.00
2023-07-26T17:30:21.409Z,20.70
2023-07-26T17:32:50.872Z,20.60
2023-07-26T17:35:18.992Z,20.50
2023-07-26T17:37:47.183Z,20.30
2023-07-26T17:40:15.206Z,20.10
2023-07-26T17:42:44.456Z,20.00
2023-07-26T17:45:12.375Z,20.00
2023-07-26T17:47:40.394Z,20.00
2023-07-26T17:50:10.332Z,19.90
2023-07-26T17:52:38.295Z,19.80
2023-07-26T17:55:07.170Z,19.70
2023-07-26T17:57:35.203Z,19.70
2023-07-26T18:00:05.757Z,19.60
2023-07-26T18:02:33.731Z,19.60
2023-07-26T18:05:01.629Z,19.60
2023-07-26T18:07:29.811Z,19.60
2023-07-26T18:09:57.728Z,19.60
2023-07-26T18:12:25.694Z,19.60
2023-07-26T18:14:53.731Z,19.60
2023-07-26T18:17:23.366Z,19.50
2023-07-26T18:19:51.354Z,19.40
2023-07-26T18:22:19.314Z,19.40
2023-07-26T18:24:47.407Z,19.30
2023-07-26T18:27:15.479Z,19.20
2023-07-26T18:29:43.435Z,19.10
2023-07-26T18:32:11.574Z,19.00
2023-07-26T18:34:40.802Z,18.90
2023-07-26T18:37:08.716Z,18.80
2023-07-26T18:39:36.617Z,18.80
2023-07-26T18:42:05.203Z,18.70
2023-07-26T18:44:33.124Z,18.60
2023-07-26T18:47:02.426Z,18.60
2023-07-26T18:49:30.410Z,18.50
2023-07-26T18:51:59.730Z,18.40
2023-07-26T18:54:27.963Z,18.40
2023-07-26T18:56:55.861Z,18.30
2023-07-26T18:59:23.804Z,18.20
2023-07-26T19:01:51.912Z,18.00
2023-07-26T19:04:21.018Z,17.90
2023-07-26T19:06:50.209Z,17.80
2023-07-26T19:09:19.469Z,17.80
2023-07-26T19:11:47.511Z,17.80
2023-07-26T19:14:15.416Z,17.70
2023-07-26T19:16:43.847Z,17.60
2023-07-26T19:19:16.703Z,17.50
2023-07-26T19:21:44.816Z,17.40
2023-07-26T19:24:12.741Z,17.30
2023-07-26T19:26:42.275Z,17.20
2023-07-26T19:29:10.198Z,17.10
2023-07-26T19:31:38.191Z,17.00
2023-07-26T19:34:06.319Z,16.90
2023-07-26T19:36:34.848Z,16.90
2023-07-26T19:39:03.296Z,16.80
2023-07-26T19:41:31.324Z,16.80
2023-07-26T19:44:00.674Z,16.70
2023-07-26T19:46:28.703Z,16.60
2023-07-26T19:48:56.679Z,16.50
2023-07-26T19:51:24.570Z,16.40
2023-07-26T19:53:52.550Z,16.30
2023-07-26T19:56:20.490Z,16.20
2023-07-26T19:58:48.732Z,16.10
2023-07-26T20:01:18.098Z,16.00
2023-07-26T20:03:46.334Z,16.00
2023-07-26T20:06:14.284Z,16.00
2023-07-26T20:08:42.230Z,16.00
2023-07-26T20:11:10.354Z,16.00
2023-07-26T20:13:42.302Z,16.00
2023-07-26T20:16:10.335Z,16.00
2023-07-26T20:18:40.144Z,15.90
2023-07-26T20:21:09.422Z,15.90
2023-07-26T20:23:37.445Z,15.90
2023-07-26T20:26:05.343Z,15.90
2023-07-26T20:28:33.269Z,15.90
2023-07-26T20:31:03.559Z,15.80
2023-07-26T20:33:31.606Z,15.90
2023-07-26T20:36:02.225Z,15.90
2023-07-26T20:38:30.136Z,15.90
2023-07-26T20:40:58.290Z,15.80
2023-07-26T20:43:26.225Z,15.80
2023-07-26T20:45:54.249Z,15.80
2023-07-26T20:48:22.166Z,15.70
2023-07-26T20:50:53.928Z,15.70
2023-07-26T20:53:23.533Z,15.70
2023-07-26T20:55:52.208Z,15.60
2023-07-26T20:58:20.152Z,15.60
2023-07-26T21:00:52.197Z,15.50
2023-07-26T21:03:20.668Z,15.50
2023-07-26T21:05:49.379Z,15.40
2023-07-26T21:08:19.431Z,15.30
2023-07-26T21:10:48.842Z,15.30
2023-07-26T21:13:16.993Z,15.20
2023-07-26T21:15:46.174Z,15.20
2023-07-26T21:18:14.155Z,15.20
2023-07-26T21:20:42.486Z,15.10
2023-07-26T21:23:10.659Z,15.10
2023-07-26T21:25:38.636Z,15.10
2023-07-26T21:28:08.050Z,15.00
2023-07-26T21:30:35.998Z,15.00
2023-07-26T21:33:04.769Z,15.00
2023-07-26T21:35:32.711Z,14.90
2023-07-26T21:38:00.619Z,14.90
2023-07-26T21:40:28.562Z,14.90
2023-07-26T21:42:56.535Z,14.90
2023-07-26T21:45:26.233Z,14.90
2023-07-26T21:47:54.273Z,14.80
2023-07-26T21:50:22.383Z,14.80
2023-07-26T21:52:50.448Z,14.80
2023-07-26T21:55:18.824Z,14.70
2023-07-26T21:57:46.685Z,14.70
2023-07-26T22:00:15.806Z,14.60
2023-07-26T22:02:45.410Z,14.60
2023-07-26T22:05:13.478Z,14.60
2023-07-26T22:07:41.620Z,14.70
2023-07-26T22:10:10.289Z,14.70
2023-07-26T22:12:38.481Z,14.60
2023-07-26T22:15:07.655Z,14.60
2023-07-26T22:17:35.652Z,14.60
2023-07-26T22:20:05.642Z,14.60
2023-07-26T22:22:33.600Z,14.60
2023-07-26T22:25:01.578Z,14.60
2023-07-26T22:27:29.646Z,14.60
2023-07-26T22:29:57.633Z,14.60
2023-07-26T22:32:25.601Z,14.60
2023-07-26T22:34:54.346Z,14.60
2023-07-26T22:37:23.890Z,14.60
2023-07-26T22:39:51.870Z,14.60
2023-07-26T22:42:19.913Z,14.60
2023-07-26T22:44:47.919Z,14.60
2023-07-26T22:47:16.013Z,14.70
2023-07-26T22:49:53.684Z,14.70
2023-07-26T22:52:23.340Z,14.80
2023-07-26T22:54:51.644Z,14.80
2023-07-26T22:57:19.634Z,14.90
2023-07-26T22:59:49.437Z,14.80
2023-07-26T23:02:19.057Z,14.90
2023-07-26T23:04:47.211Z,14.90
2023-07-26T23:07:17.338Z,14.90
2023-07-26T23:09:46.571Z,14.90
2023-07-26T23:12:14.838Z,14.90
2023-07-26T23:14:42.873Z,15.00
2023-07-26T23:17:10.830Z,14.90
2023-07-26T23:19:38.729Z,14.90
2023-07-26T23:22:07.340Z,14.90
2023-07-26T23:24:36.045Z,14.90
2023-07-26T23:27:05.972Z,14.90
2023-07-26T23:29:33.952Z,14.90
2023-07-26T23:32:01.842Z,14.90
2023-07-26T23:34:29.734Z,15.00
2023-07-26T23:36:57.772Z,15.00
2023-07-26T23:39:25.714Z,15.00
2023-07-26T23:41:53.729Z,15.00
2023-07-26T23:44:22.996Z,15.00
2023-07-26T23:46:50.999Z,15.10
2023-07-26T23:49:18.979Z,15.00
2023-07-26T23:51:46.996Z,15.10
2023-07-26T23:54:14.936Z,15.20
2023-07-26T23:56:42.858Z,15.10
2023-07-26T23:59:10.923Z,15.20
